createdAt,value
2022-08-07T00:00:18.856Z,13.27
2022-08-07T00:02:44.308Z,13.31
2022-08-07T00:05:06.363Z,13.33
2022-08-07T00:07:27.921Z,13.11
2022-08-07T00:10:26.516Z,12.98
2022-08-07T00:12:59.853Z,12.94
2022-08-07T00:15:22.497Z,12.93
2022-08-07T00:17:47.361Z,12.96
2022-08-07T00:20:10.776Z,13.01
2022-08-07T00:22:51.582Z,13.07
2022-08-07T00:25:17.271Z,12.93
2022-08-07T00:27:53.235Z,12.73
2022-08-07T00:30:26.746Z,12.62
2022-08-07T00:32:50.585Z,12.61
2022-08-07T00:35:12.069Z,12.59
2022-08-07T00:37:47.636Z,12.68
2022-08-07T00:40:10.939Z,12.69
2022-08-07T00:42:36.542Z,12.65
2022-08-07T00:44:58.132Z,12.43
2022-08-07T00:48:09.070Z,12.25
2022-08-07T00:50:19.127Z,12.19
2022-08-07T00:52:43.540Z,12.26
2022-08-07T00:55:10.697Z,12.36
2022-08-07T00:57:34.159Z,12.18
2022-08-07T00:59:55.793Z,12.12
2022-08-07T01:02:29.100Z,12.22
2022-08-07T01:04:51.441Z,12.22
2022-08-07T01:07:14.657Z,12.12
2022-08-07T01:10:05.988Z,11.96
2022-08-07T01:12:28.860Z,12.09
2022-08-07T01:14:57.169Z,11.94
2022-08-07T01:17:22.922Z,11.90
2022-08-07T01:19:54.292Z,11.94
2022-08-07T01:22:22.765Z,11.86
2022-08-07T01:24:51.017Z,11.90
2022-08-07T01:27:19.807Z,11.88
2022-08-07T01:29:42.964Z,11.89
2022-08-07T01:32:11.900Z,11.82
2022-08-07T01:34:35.244Z,11.77
2022-08-07T01:36:57.949Z,11.57
2022-08-07T01:39:20.131Z,11.44
2022-08-07T01:42:07.167Z,11.43
2022-08-07T01:44:27.224Z,11.41
2022-08-07T01:46:48.909Z,11.48
2022-08-07T01:49:12.425Z,11.45
2022-08-07T01:52:04.258Z,11.44
2022-08-07T01:54:22.049Z,11.38
2022-08-07T01:57:24.292Z,11.20
2022-08-07T02:00:15.676Z,11.14
2022-08-07T02:03:19.160Z,11.30
2022-08-07T02:05:53.629Z,11.27
2022-08-07T02:08:20.701Z,11.18
2022-08-07T02:10:54.948Z,11.19
2022-08-07T02:13:18.503Z,11.15
2022-08-07T02:15:42.437Z,11.18
2022-08-07T02:18:05.180Z,11.27
2022-08-07T02:20:32.000Z,11.25
2022-08-07T02:22:59.748Z,11.09
2022-08-07T02:26:10.963Z,11.02
2022-08-07T02:28:06.917Z,10.96
2022-08-07T02:30:30.650Z,11.10
2022-08-07T02:33:08.985Z,10.94
2022-08-07T02:36:30.213Z,10.93
2022-08-07T02:38:18.281Z,10.88
2022-08-07T02:40:46.629Z,10.83
2022-08-07T02:43:08.982Z,10.89
2022-08-07T02:45:59.177Z,10.85
2022-08-07T02:48:15.693Z,10.92
2022-08-07T02:50:44.086Z,11.05
2022-08-07T02:53:12.494Z,10.93
2022-08-07T02:56:02.367Z,10.86
2022-08-07T02:58:22.201Z,10.80
2022-08-07T03:00:51.931Z,10.61
2022-08-07T03:03:22.500Z,10.56
2022-08-07T03:05:46.309Z,10.61
2022-08-07T03:08:10.500Z,10.66
2022-08-07T03:10:33.072Z,10.55
2022-08-07T03:12:55.273Z,10.48
2022-08-07T03:15:30.348Z,10.47
2022-08-07T03:18:00.278Z,10.35
2022-08-07T03:20:24.060Z,10.42
2022-08-07T03:22:50.200Z,10.34
2022-08-07T03:25:12.399Z,10.26
2022-08-07T03:27:58.820Z,10.24
2022-08-07T03:30:18.140Z,10.27
2022-08-07T03:32:49.098Z,10.31
2022-08-07T03:35:26.361Z,10.40
2022-08-07T03:37:55.168Z,10.29
2022-08-07T03:40:18.754Z,10.28
2022-08-07T03:42:44.599Z,10.38
2022-08-07T03:45:07.343Z,10.37
2022-08-07T03:47:48.222Z,10.17
2022-08-07T03:50:12.170Z,10.13
2022-08-07T03:52:35.117Z,10.22
2022-08-07T03:55:06.966Z,10.23
2022-08-07T03:58:35.152Z,10.23
2022-08-07T04:00:14.840Z,10.11
2022-08-07T04:02:36.924Z,9.94
2022-08-07T04:05:05.995Z,9.92
2022-08-07T04:07:36.285Z,9.92
2022-08-07T04:10:04.756Z,10.02
2022-08-07T04:12:29.093Z,10.09
2022-08-07T04:14:52.058Z,10.07
2022-08-07T04:17:20.538Z,9.93
2022-08-07T04:19:52.572Z,9.88
2022-08-07T04:22:17.838Z,9.98
2022-08-07T04:24:41.210Z,9.91
2022-08-07T04:27:04.550Z,10.01
2022-08-07T04:29:26.069Z,9.98
2022-08-07T04:32:10.927Z,10.01
2022-08-07T04:34:33.319Z,10.12
2022-08-07T04:37:00.400Z,10.14
2022-08-07T04:39:25.938Z,10.07
2022-08-07T04:41:50.187Z,9.96
2022-08-07T04:44:18.846Z,10.04
2022-08-07T04:47:07.922Z,10.06
2022-08-07T04:50:05.955Z,10.09
2022-08-07T04:52:51.746Z,10.19
2022-08-07T04:58:07.726Z,10.27
2022-08-07T04:58:47.568Z,10.21
2022-08-07T05:01:18.329Z,10.13
2022-08-07T05:04:07.910Z,10.18
2022-08-07T05:06:42.980Z,10.24
2022-08-07T05:09:12.301Z,10.29
2022-08-07T05:11:57.639Z,10.38
2022-08-07T05:14:55.214Z,10.44
2022-08-07T05:17:13.874Z,10.54
2022-08-07T05:19:56.754Z,10.65
2022-08-07T05:22:27.798Z,10.76
2022-08-07T05:24:55.522Z,10.83
2022-08-07T05:28:03.251Z,10.92
2022-08-07T05:30:01.822Z,10.99
2022-08-07T05:32:26.416Z,11.02
2022-08-07T05:34:49.656Z,11.07
2022-08-07T05:37:13.648Z,11.16
2022-08-07T05:40:06.972Z,11.24
2022-08-07T05:42:33.398Z,11.31
2022-08-07T05:45:14.358Z,11.41
2022-08-07T05:48:01.458Z,11.54
2022-08-07T05:50:22.600Z,11.63
2022-08-07T05:52:44.130Z,11.75
2022-08-07T05:55:10.835Z,11.87
2022-08-07T05:57:34.584Z,11.93
2022-08-07T06:00:01.293Z,12.05
2022-08-07T06:02:28.729Z,12.12
2022-08-07T06:04:55.256Z,12.20
2022-08-07T06:07:22.822Z,12.28
2022-08-07T06:10:05.325Z,12.41
2022-08-07T06:12:27.807Z,12.49
2022-08-07T06:14:53.953Z,12.59
2022-08-07T06:17:22.446Z,12.69
2022-08-07T06:19:52.613Z,12.79
2022-08-07T06:22:27.359Z,12.85
2022-08-07T06:24:56.999Z,12.94
2022-08-07T06:27:22.739Z,13.09
2022-08-07T06:30:03.902Z,13.16
2022-08-07T06:32:25.835Z,13.25
2022-08-07T06:34:50.927Z,13.38
2022-08-07T06:37:12.557Z,13.48
2022-08-07T06:40:17.843Z,13.56
2022-08-07T06:42:35.043Z,13.71
2022-08-07T06:44:58.331Z,13.84
2022-08-07T06:47:26.821Z,13.97
2022-08-07T06:49:52.305Z,14.08
2022-08-07T06:52:32.023Z,14.18
2022-08-07T06:55:32.640Z,14.30
2022-08-07T06:57:47.739Z,14.40
2022-08-07T07:00:17.547Z,14.51
2022-08-07T07:02:54.344Z,14.62
2022-08-07T07:06:03.413Z,14.74
2022-08-07T07:08:07.401Z,14.87
2022-08-07T07:10:35.112Z,14.98
2022-08-07T07:13:03.793Z,15.14
2022-08-07T07:15:32.550Z,15.32
2022-08-07T07:18:05.660Z,15.65
2022-08-07T07:20:35.899Z,15.81
2022-08-07T07:24:11.241Z,15.83
2022-08-07T07:26:31.610Z,16.09
2022-08-07T07:29:22.770Z,16.30
2022-08-07T07:31:30.463Z,16.45
2022-08-07T07:34:09.309Z,16.59
2022-08-07T07:36:33.615Z,16.77
2022-08-07T07:38:56.158Z,17.05
2022-08-07T07:41:21.522Z,17.23
2022-08-07T07:44:17.826Z,17.42
2022-08-07T07:46:56.098Z,17.60
2022-08-07T07:50:35.099Z,17.69
2022-08-07T07:52:07.410Z,17.96
2022-08-07T07:54:31.731Z,18.18
2022-08-07T07:56:57.255Z,18.37
2022-08-07T07:59:51.669Z,18.54
2022-08-07T08:02:05.071Z,18.69
2022-08-07T08:04:34.951Z,18.81
2022-08-07T08:07:00.718Z,18.90
2022-08-07T08:09:29.648Z,19.12
2022-08-07T08:12:03.250Z,19.44
2022-08-07T08:14:26.660Z,19.56
2022-08-07T08:16:49.600Z,19.76
2022-08-07T08:20:15.917Z,20.03
2022-08-07T08:22:20.237Z,20.29
2022-08-07T08:25:09.447Z,20.37
2022-08-07T08:27:44.064Z,20.58
2022-08-07T08:30:19.733Z,20.78
2022-08-07T08:32:49.239Z,20.80
2022-08-07T08:35:17.316Z,20.81
2022-08-07T08:38:00.630Z,21.11
2022-08-07T08:40:37.677Z,21.16
2022-08-07T08:43:17.519Z,21.50
2022-08-07T08:46:06.468Z,21.68
2022-08-07T08:48:45.200Z,21.67
2022-08-07T08:52:01.086Z,21.78
2022-08-07T08:54:32.695Z,22.06
2022-08-07T08:56:58.163Z,22.23
2022-08-07T08:59:42.058Z,22.30
2022-08-07T09:02:36.628Z,22.56
2022-08-07T09:05:32.009Z,22.71
2022-08-07T09:08:17.809Z,22.89
2022-08-07T09:10:45.606Z,23.20
2022-08-07T09:13:28.945Z,23.03
2022-08-07T09:16:20.535Z,22.84
2022-08-07T09:19:50.900Z,23.16
2022-08-07T09:24:30.716Z,23.18
2022-08-07T09:25:24.602Z,23.36
2022-08-07T09:28:00.671Z,23.63
2022-08-07T09:30:28.402Z,23.67
2022-08-07T09:33:16.684Z,23.49
2022-08-07T09:36:18.605Z,23.54
2022-08-07T09:39:06.283Z,23.63
2022-08-07T09:42:23.142Z,23.77
2022-08-07T09:47:50.041Z,23.86
2022-08-07T09:48:29.867Z,23.95
2022-08-07T09:52:10.496Z,23.93
2022-08-07T09:54:02.831Z,23.82
2022-08-07T09:56:58.561Z,24.05
2022-08-07T09:59:46.711Z,24.08
2022-08-07T10:02:34.669Z,24.25
2022-08-07T10:05:14.132Z,24.45
2022-08-07T10:08:07.198Z,24.38
2022-08-07T10:11:59.114Z,24.46
2022-08-07T10:14:00.790Z,24.57
2022-08-07T10:16:59.479Z,24.68
2022-08-07T10:19:38.437Z,24.88
2022-08-07T10:22:36.744Z,25.00
2022-08-07T10:25:33.039Z,25.01
2022-08-07T10:28:10.399Z,24.91
2022-08-07T10:30:51.420Z,25.16
2022-08-07T10:34:04.993Z,25.23
2022-08-07T10:36:29.643Z,25.21
2022-08-07T10:39:25.797Z,25.54
2022-08-07T10:42:30.904Z,25.67
2022-08-07T10:45:44.888Z,25.56
2022-08-07T10:48:44.264Z,25.48
2022-08-07T10:51:57.193Z,25.38
2022-08-07T10:54:53.529Z,25.67
2022-08-07T10:58:02.085Z,25.74
2022-08-07T11:00:36.998Z,25.73
2022-08-07T11:03:37.698Z,25.65
2022-08-07T11:06:26.697Z,26.00
2022-08-07T11:10:09.537Z,26.00
2022-08-07T11:12:19.111Z,26.35
2022-08-07T11:15:02.730Z,26.68
2022-08-07T11:17:45.851Z,26.77
2022-08-07T11:20:16.078Z,26.85
2022-08-07T11:22:51.300Z,27.01
2022-08-07T11:25:23.404Z,27.15
2022-08-07T11:28:04.067Z,27.14
2022-08-07T11:30:39.022Z,27.41
2022-08-07T11:33:16.924Z,27.35
2022-08-07T11:36:25.395Z,27.53
2022-08-07T11:39:07.260Z,27.61
2022-08-07T11:42:02.468Z,27.99
2022-08-07T11:44:26.122Z,27.99
2022-08-07T11:47:17.893Z,27.94
2022-08-07T11:50:31.685Z,27.94
2022-08-07T11:53:33.711Z,27.74
2022-08-07T11:56:34.421Z,27.68
2022-08-07T12:00:11.219Z,27.86
2022-08-07T12:02:20.883Z,27.84
2022-08-07T12:05:41.042Z,28.04
2022-08-07T12:08:25.946Z,28.47
2022-08-07T12:11:20.070Z,28.70
2022-08-07T12:14:05.405Z,28.85
2022-08-07T12:16:30.570Z,28.93
2022-08-07T12:19:14.643Z,29.06
2022-08-07T12:21:55.912Z,29.28
2022-08-07T12:25:02.208Z,29.63
2022-08-07T12:28:08.924Z,29.92
2022-08-07T12:30:17.570Z,30.27
2022-08-07T12:32:58.133Z,30.36
2022-08-07T12:35:24.206Z,30.61
2022-08-07T12:38:11.679Z,30.96
2022-08-07T12:40:46.918Z,31.87
2022-08-07T12:44:01.298Z,32.61
2022-08-07T12:46:01.652Z,33.68
2022-08-07T12:48:41.619Z,34.79
2022-08-07T12:51:18.296Z,35.73
2022-08-07T12:54:03.433Z,36.22
2022-08-07T12:56:29.892Z,36.52
2022-08-07T12:58:56.955Z,36.99
2022-08-07T13:01:40.487Z,37.38
2022-08-07T13:04:34.320Z,37.64
2022-08-07T13:08:13.609Z,38.50
2022-08-07T13:10:45.682Z,38.83
2022-08-07T13:13:47.946Z,39.27
2022-08-07T13:16:11.843Z,39.47
2022-08-07T13:18:50.576Z,39.88
2022-08-07T13:21:55.018Z,39.88
2022-08-07T13:24:33.887Z,39.53
2022-08-07T13:27:05.439Z,39.44
2022-08-07T13:29:49.012Z,39.70
2022-08-07T13:32:31.273Z,39.90
2022-08-07T13:35:11.896Z,40.25
2022-08-07T13:38:01.694Z,39.81
2022-08-07T13:40:42.428Z,39.52
2022-08-07T13:43:12.294Z,39.54
2022-08-07T13:46:11.859Z,39.68
2022-08-07T13:48:27.834Z,39.19
2022-08-07T13:51:01.690Z,39.38
2022-08-07T13:53:45.726Z,39.27
2022-08-07T13:56:12.292Z,39.42
2022-08-07T13:59:00.666Z,39.31
2022-08-07T14:01:24.421Z,39.48
2022-08-07T14:04:05.182Z,39.64
2022-08-07T14:06:32.675Z,39.70
2022-08-07T14:08:55.160Z,39.64
2022-08-07T14:11:19.386Z,39.49
2022-08-07T14:13:55.129Z,39.42
2022-08-07T14:16:17.608Z,39.20
2022-08-07T14:18:57.232Z,39.24
2022-08-07T14:22:02.487Z,39.14
2022-08-07T14:24:29.370Z,39.52
2022-08-07T14:27:01.309Z,39.21
2022-08-07T14:30:08.227Z,38.43
2022-08-07T14:32:31.384Z,38.24
2022-08-07T14:34:55.113Z,38.12
2022-08-07T14:37:19.092Z,38.02
2022-08-07T14:40:16.212Z,37.46
2022-08-07T14:42:33.729Z,37.44
2022-08-07T14:45:20.887Z,37.55
2022-08-07T14:47:42.740Z,37.64
2022-08-07T14:50:11.476Z,37.95
2022-08-07T14:52:38.514Z,37.85
2022-08-07T14:55:01.757Z,38.10
2022-08-07T14:57:54.648Z,38.76
2022-08-07T15:00:09.232Z,39.18
2022-08-07T15:02:34.500Z,39.15
2022-08-07T15:04:57.136Z,39.09
2022-08-07T15:07:24.596Z,39.42
2022-08-07T15:10:10.920Z,39.36
2022-08-07T15:12:36.678Z,38.74
2022-08-07T15:15:09.306Z,38.75
2022-08-07T15:17:54.867Z,38.84
2022-08-07T15:20:32.599Z,39.28
2022-08-07T15:22:58.689Z,39.14
2022-08-07T15:25:36.653Z,38.84
2022-08-07T15:28:30.782Z,38.51
2022-08-07T15:31:05.297Z,38.14
2022-08-07T15:36:12.625Z,37.61
2022-08-07T15:38:51.670Z,37.61
2022-08-07T15:42:43.572Z,37.80
2022-08-07T15:44:09.605Z,37.97
2022-08-07T15:46:38.489Z,38.04
2022-08-07T15:49:13.046Z,37.80
2022-08-07T15:54:19.974Z,37.80
2022-08-07T15:56:42.721Z,38.03
2022-08-07T15:59:17.393Z,38.01
2022-08-07T16:01:45.080Z,37.83
2022-08-07T16:04:29.893Z,37.63
2022-08-07T16:06:57.189Z,37.55
2022-08-07T16:09:42.091Z,37.48
2022-08-07T16:12:37.922Z,37.62
2022-08-07T16:15:54.944Z,37.08
2022-08-07T16:18:49.427Z,37.04
2022-08-07T16:22:02.144Z,36.92
2022-08-07T16:24:34.983Z,36.96
2022-08-07T16:27:19.085Z,37.03
2022-08-07T16:30:31.773Z,37.01
2022-08-07T16:34:03.254Z,36.81
2022-08-07T16:36:19.968Z,36.57
2022-08-07T16:39:03.682Z,36.49
2022-08-07T16:41:41.752Z,36.09
2022-08-07T16:44:53.830Z,35.92
2022-08-07T16:47:38.605Z,35.48
2022-08-07T16:50:36.955Z,35.28
2022-08-07T16:54:01.547Z,35.17
2022-08-07T16:56:20.686Z,34.91
2022-08-07T16:59:10.711Z,34.80
2022-08-07T17:01:48.310Z,34.71
2022-08-07T17:04:26.608Z,34.20
2022-08-07T17:07:16.935Z,33.61
2022-08-07T17:10:09.301Z,33.31
2022-08-07T17:12:54.405Z,33.20
2022-08-07T17:15:50.785Z,33.41
2022-08-07T17:18:23.197Z,33.36
2022-08-07T17:20:47.772Z,33.23
2022-08-07T17:23:15.361Z,33.31
2022-08-07T17:26:24.192Z,33.28
2022-08-07T17:28:51.953Z,33.25
2022-08-07T17:32:02.800Z,33.26
2022-08-07T17:34:57.260Z,33.21
2022-08-07T17:38:09.640Z,33.20
2022-08-07T17:40:54.841Z,33.27
2022-08-07T17:44:01.688Z,33.35
2022-08-07T17:46:21.141Z,33.00
2022-08-07T17:49:30.139Z,32.97
2022-08-07T17:52:12.776Z,32.74
2022-08-07T17:54:54.102Z,32.62
2022-08-07T17:57:24.419Z,32.35
2022-08-07T17:59:51.631Z,32.10
2022-08-07T18:02:36.256Z,31.89
2022-08-07T18:05:21.635Z,31.81
2022-08-07T18:07:52.112Z,31.60
2022-08-07T18:10:32.468Z,31.42
2022-08-07T18:13:00.610Z,31.18
2022-08-07T18:15:33.042Z,30.85
2022-08-07T18:18:44.853Z,30.84
2022-08-07T18:21:12.641Z,30.70
2022-08-07T18:23:57.498Z,30.35
2022-08-07T18:26:33.995Z,30.26
2022-08-07T18:30:05.423Z,30.08
2022-08-07T18:32:12.950Z,29.54
2022-08-07T18:35:01.172Z,29.28
2022-08-07T18:38:58.640Z,28.86
2022-08-07T18:41:07.935Z,28.37
2022-08-07T18:43:50.766Z,27.90
2022-08-07T18:46:49.165Z,27.65
2022-08-07T18:50:19.686Z,27.35
2022-08-07T18:52:52.506Z,27.03
2022-08-07T18:55:42.723Z,26.53
2022-08-07T18:58:26.070Z,26.29
2022-08-07T19:01:00.821Z,26.12
2022-08-07T19:03:38.035Z,26.10
2022-08-07T19:06:05.670Z,25.81
2022-08-07T19:08:55.759Z,25.60
2022-08-07T19:11:35.610Z,25.57
2022-08-07T19:14:20.265Z,25.18
2022-08-07T19:17:06.388Z,24.95
2022-08-07T19:19:49.968Z,24.70
2022-08-07T19:22:34.080Z,24.45
2022-08-07T19:24:57.739Z,24.30
2022-08-07T19:28:58.621Z,24.19
2022-08-07T19:30:57.906Z,23.93
2022-08-07T19:33:10.380Z,23.89
2022-08-07T19:35:36.860Z,23.54
2022-08-07T19:38:00.098Z,23.29
2022-08-07T19:40:31.182Z,23.20
2022-08-07T19:42:55.826Z,23.14
2022-08-07T19:46:01.065Z,22.87
2022-08-07T19:48:03.055Z,22.86
2022-08-07T19:50:44.467Z,22.50
2022-08-07T19:54:32.246Z,22.29
2022-08-07T19:55:57.699Z,22.08
2022-08-07T19:58:27.915Z,21.97
2022-08-07T20:00:54.255Z,21.87
2022-08-07T20:03:35.769Z,21.82
2022-08-07T20:06:02.290Z,21.67
2022-08-07T20:08:28.552Z,21.52
2022-08-07T20:11:03.682Z,21.43
2022-08-07T20:13:43.469Z,21.04
2022-08-07T20:16:09.800Z,20.80
2022-08-07T20:18:47.358Z,20.70
2022-08-07T20:21:21.034Z,20.57
2022-08-07T20:23:54.298Z,20.49
2022-08-07T20:26:29.581Z,20.44
2022-08-07T20:28:55.615Z,20.33
2022-08-07T20:31:21.317Z,20.27
2022-08-07T20:33:49.455Z,20.10
2022-08-07T20:36:21.713Z,20.02
2022-08-07T20:38:53.727Z,20.03
2022-08-07T20:41:28.192Z,19.75
2022-08-07T20:43:57.866Z,19.62
2022-08-07T20:46:31.091Z,19.63
2022-08-07T20:49:54.140Z,19.42
2022-08-07T20:51:40.576Z,19.36
2022-08-07T20:54:15.291Z,19.30
2022-08-07T20:56:53.944Z,19.22
2022-08-07T21:00:04.967Z,18.97
2022-08-07T21:02:00.644Z,18.90
2022-08-07T21:04:27.949Z,18.79
2022-08-07T21:06:53.432Z,18.74
2022-08-07T21:09:19.921Z,18.66
2022-08-07T21:11:51.773Z,18.61
2022-08-07T21:14:31.993Z,18.39
2022-08-07T21:18:03.308Z,18.42
2022-08-07T21:19:51.910Z,18.43
2022-08-07T21:22:28.694Z,18.25
2022-08-07T21:25:20.213Z,18.34
2022-08-07T21:28:47.703Z,17.95
2022-08-07T21:31:15.569Z,17.88
2022-08-07T21:34:07.865Z,17.85
2022-08-07T21:36:40.049Z,17.88
2022-08-07T21:39:46.242Z,17.95
2022-08-07T21:42:42.013Z,17.60
2022-08-07T21:46:05.397Z,17.51
2022-08-07T21:48:29.137Z,17.48
2022-08-07T21:51:00.601Z,17.24
2022-08-07T21:53:37.054Z,17.21
2022-08-07T21:56:36.025Z,17.12
2022-08-07T21:59:29.696Z,17.05
2022-08-07T22:02:11.450Z,16.84
2022-08-07T22:04:52.515Z,16.79
2022-08-07T22:07:31.593Z,16.75
2022-08-07T22:10:07.312Z,16.73
2022-08-07T22:12:42.063Z,16.74
2022-08-07T22:16:39.713Z,16.75
2022-08-07T22:17:59.902Z,16.64
2022-08-07T22:20:53.145Z,16.47
2022-08-07T22:23:21.762Z,16.42
2022-08-07T22:26:17.459Z,16.46
2022-08-07T22:28:53.285Z,16.31
2022-08-07T22:31:59.970Z,16.24
2022-08-07T22:34:53.126Z,16.21
2022-08-07T22:38:12.014Z,16.17
2022-08-07T22:40:41.846Z,16.17
2022-08-07T22:43:10.102Z,16.26
2022-08-07T22:46:21.321Z,16.17
2022-08-07T22:49:00.791Z,15.95
2022-08-07T22:51:43.527Z,15.81
2022-08-07T22:54:30.526Z,15.79
2022-08-07T22:57:16.995Z,15.86
2022-08-07T22:59:50.982Z,15.72
2022-08-07T23:02:55.139Z,15.57
2022-08-07T23:06:09.463Z,15.56
2022-08-07T23:10:06.295Z,15.37
2022-08-07T23:12:01.281Z,15.36
2022-08-07T23:15:06.825Z,15.41
2022-08-07T23:17:41.682Z,15.21
2022-08-07T23:20:50.984Z,15.22
2022-08-07T23:24:05.741Z,15.12
2022-08-07T23:26:25.345Z,15.06
2022-08-07T23:30:36.190Z,15.20
2022-08-07T23:34:20.773Z,15.09
2022-08-07T23:35:23.913Z,14.79
2022-08-07T23:38:06.427Z,14.76
2022-08-07T23:40:34.245Z,14.66
2022-08-07T23:43:17.654Z,14.72
2022-08-07T23:46:02.638Z,14.66
2022-08-07T23:49:15.188Z,14.57
2022-08-07T23:53:00.188Z,14.66
2022-08-07T23:54:44.411Z,14.63
2022-08-07T23:57:34.865Z,14.57
